events-overview

Parris Island Triathlon

 

Overall Men

Parris Island Combat Training Pool - Parris Island, SC 3/18/2006 12:00PM

** Results are for the private use of participants and are the Intellectual Property of Set Up Events. Unauthorized use of these results is prohibited.

Place Bib Age NAME CITY/STATE Rank SWIM T1 Rank BIKE T2 Rank RUN PENALTY TIME DQ
1338DELBERT MARRIOTTSIKESTON MO3400:08:0800:00:28100:27:4600:00:36500:17:15 00:54:12 
2129RADEK PARNICACZECH REPUBLIC200:06:2200:00:26700:30:4400:00:40300:17:06 00:55:15 
38939NICK FELIXHILTON HEAD ISLAND SC3300:08:0500:00:30600:30:4200:00:31100:16:34 00:56:20 
43136BRYAN BENITEZ-NELSONCOLUMBIA SC1300:07:2700:01:09900:31:0600:00:42400:17:08 00:57:30 
51636MARK WOODYCOLUMBIA SC500:06:4800:00:46800:30:5900:00:401200:18:28 00:57:41 
67037GREGG CROMERSUMMERVILLE SC3900:08:1900:00:521000:31:0600:00:38200:16:58 00:57:51 
74226JAMIE CHURCHGREER SC2500:07:5400:00:401200:31:2300:00:40800:17:40 00:58:15 
8418NICK BRITTISBLUFFTON SC100:06:0300:00:401800:32:1300:00:412200:19:22 00:58:58 
92941HERBIE REEVESIRMO SC600:07:0900:01:02400:30:2200:00:432800:19:47 00:59:01 
1014242CHRISTOPHER GIORDANELLISIMPSONVILLE SC13400:10:3600:01:22200:28:5800:00:49600:17:28 00:59:13 
112440J.T. BYRNERICHMOND HILL GA3700:08:1600:00:52300:30:2000:00:452100:19:18 00:59:29 
122332COREY BRADDOCKELIZABETHTOWN KY400:06:4400:00:401400:31:4500:00:563000:19:55 00:59:58 
135939CHRIS SMUTZERFOUNTAIN INN SC7500:09:1200:00:38500:30:4200:00:421400:18:57 01:00:09 
141942ERIC RUCKELMT. PLEASANT SC3100:08:0400:00:562400:32:5800:00:56700:17:35 01:00:26 
152637KEVIN OWENSROCKVILLE MD1600:07:3000:00:491700:32:1200:00:392500:19:32 01:00:40 
166345TED HUBBARDTRYON NC4100:08:2100:00:333100:33:2500:00:37900:18:00 01:00:54 
171723JOHN ALVAREZBLUFFTON SC800:07:1500:00:393700:33:3900:00:481900:19:12 01:01:31 
183836RICHARD FAYRALEIGH NC1200:07:2700:01:172600:32:5900:00:552600:19:39 01:02:14 
198642VANCE ROWLANDBELTON SC5300:08:5000:01:231100:31:2200:00:542900:19:52 01:02:19 
2010921BRANDON DRAGONECAPE GIRARDEAU MO15200:10:5600:00:371600:32:1100:00:341000:18:26 01:02:42 
215640ALLAN MCLELANDDARLINGTON SC1900:07:3800:01:032700:33:1000:00:494300:20:28 01:03:07 
227742MICHAEL MILLERFLORENCE SC4000:08:2000:01:162500:32:5800:01:043300:20:05 01:03:41 
233641MATTHEW SEAMANSBEAUFORT SC2100:07:4200:00:512900:33:1800:00:545700:20:59 01:03:42 
244623CHRISTOPHER COPLEYFREDERICKSBURG VA2700:07:5700:01:061900:32:2100:00:428400:21:53 01:03:58 
258844PETER WESTHILTON HEAD SC5500:08:5200:01:053400:33:3500:00:432700:19:46 01:03:59 
2621427KURT WILSONCANDLER NC13700:10:3800:00:582800:33:1600:00:471100:18:26 01:04:02 
2711352BILL EDWARDSFLORENCE SC5000:08:4600:00:453000:33:2200:00:474400:20:28 01:04:07 
284747KENNETH DAIGLEMT PLEASANT SC5400:08:5100:00:552100:32:5000:00:445500:20:53 01:04:12 
295320ALEX SCHNEIDERCAPE GIRARDEAU MO4700:08:3500:00:356100:35:1800:00:441600:19:02 01:04:13 
303728MICAH ZUHLCOLUMBIA SC2600:07:5500:01:255100:34:5500:01:221300:18:48 01:04:24 
PlaceBibAgeNAMECITY/STATERankSWIMT1RankBIKET2RankRUNPENALTYTIMEDQ
312043FRANK ROTHGREENVILLE SC1700:07:3400:00:575200:34:5600:00:504500:20:35 01:04:50 
322238NICHOLAS TAYLORGILBERT SC7700:09:1500:01:022300:32:5600:00:584900:20:41 01:04:51 
334850WILLIAM EHRHORNFLORENCE SC900:07:1700:01:106400:35:2700:01:063400:20:06 01:05:06 
346526BRYAN NUCKOLSEVANS GA1500:07:2700:00:557600:35:5600:00:593500:20:09 01:05:25 
3512146BILL WISEMANCOLUMBIA SC7000:09:1000:00:552200:32:5200:00:468300:21:45 01:05:25 
368145ROBERT TAYLORBROWNSVILLE PA7100:09:1000:01:094400:34:1700:01:053700:20:16 01:05:54 
376844BUBBA BRUNSONFLORENCE SC4200:08:2800:01:114200:34:0100:01:056800:21:18 01:06:01 
388730ANTHONY SKRYPEKEVANS GA4600:08:3500:00:454000:33:5900:01:207600:21:30 01:06:08 
395756JOHN JENSENSAVANNAH GA4400:08:3200:01:103600:33:3600:00:589100:22:04 01:06:19 
406040JOHNNY MCALHANYHODGES SC3500:08:1200:01:283900:33:5900:00:519200:22:04 01:06:32 
419730BRADLEY JOHNSONNORTH AUGUSTA SC5600:08:5400:01:004900:34:4500:00:436600:21:15 01:06:35 
425544MIKE STAHLMANPARRIS ISLAND SC1800:07:3600:00:585800:35:1300:01:277500:21:25 01:06:37 
434346DAVE HUNTERIRMO SC2200:07:4300:00:593800:33:4000:01:1111700:23:08 01:06:39 
449520JEFFREY HAWESSUMMERVILLE SC9900:09:4900:02:141300:31:3500:01:138800:21:58 01:06:47 
455034BRIAN HAMELROCK HILL SC2400:07:5200:01:415700:35:0900:00:536700:21:17 01:06:49 
469141DAVID ANGSTADTCLEMSON SC7200:09:1100:01:177700:35:5700:01:042400:19:31 01:06:57 
4713436SCOTT CONWAYPOOLER GA6500:09:0800:01:346300:35:2500:00:514000:20:23 01:07:20 
4814942HOOD TEMPLEFLORENCE SC3600:08:1500:01:138400:36:2300:01:035100:20:43 01:07:36 
4932337ROBERT CARPENTERGILBERT SC8300:09:2500:01:247100:35:3400:00:354800:20:40 01:07:36 
508544ROBERT ROOTFLORENCE SC5900:09:0100:01:041500:32:0800:01:0815200:24:18 01:07:38 
519423JOHN WESTBROOKSPICKENS SC9400:09:4300:01:005500:35:0500:01:334100:20:24 01:07:43 
521332ELI PENNCHARLESTON SC3800:08:1600:01:347500:35:5600:01:145400:20:47 01:07:45 
5317859KEN CORRELLYORK SC9300:09:4200:01:125000:34:4800:00:546500:21:13 01:07:48 
5436331BRAD MILLERFAIRVIEW NC20900:13:0500:01:123300:33:3100:00:591700:19:04 01:07:48 
556123ADAM DEWITTCLEMSON SC8900:09:3600:00:494600:34:2500:01:058900:21:58 01:07:51 
5615443OLEG VENGEROWSKYMANNING SC6800:09:0900:01:394700:34:4100:01:166400:21:11 01:07:54 
571840JIM CHRISTIANAUGUSTA GA1400:07:2700:01:085900:35:1400:01:1011400:22:58 01:07:56 
5814023LUCAS FAULKENBERRYCOLUMBIA SC8100:09:2300:00:5910300:37:2400:01:042000:19:18 01:08:06 
5910533PETE RISELLSIMPSONVILLE SC7300:09:1100:01:105400:35:0500:01:038200:21:43 01:08:10 
60914ETHAN RUCKELMT. PLEASANT SC1000:07:2200:01:3415800:39:4400:00:531500:19:01 01:08:32 
6121327SHAUN WATSONPARRIS LSLAND SC6900:09:0900:00:5511700:37:4800:00:483200:20:04 01:08:42 
PlaceBibAgeNAMECITY/STATERankSWIMT1RankBIKET2RankRUNPENALTYTIMEDQ
6210629STEPHEN SHENALGREENWOOD SC12000:10:1400:01:422000:32:4300:01:0511800:23:10 01:08:53 
6316333JUSTIN WARDMT. PLEASANT SC10000:09:5000:01:028800:36:3500:00:485000:20:42 01:08:56 
6428027CHAD SULLIVANBEAUFORT SC13900:10:4100:01:314500:34:2300:01:226300:21:10 01:09:06 
6525127MATTHEW KUTILEKCHARLESTON SC14000:10:4400:00:5711200:37:4200:00:381800:19:07 01:09:06 
6620935HAL OUTENGREENVILLE SC13800:10:4000:01:044100:34:0000:00:4610900:22:53 01:09:21 
6712727J.R. STRATTONALEXANDRIA VA11500:10:0900:01:407400:35:5300:00:536100:21:04 01:09:37 
686727SHAUN ROONEYSUMTER SC4500:08:3400:01:0714100:38:4300:01:193100:20:04 01:09:45 
6920023ANDREW HOWARDSTONE MOUNTAIN GA14200:10:4600:01:049400:36:5100:00:414200:20:27 01:09:48 
7012941CHRISTOPHER KEMPCOLUMBIA SC11200:10:0700:01:203200:33:2700:01:0314400:23:56 01:09:52 
7117445WILLIAM ROSCHEBEAUFORT SC12100:10:1700:01:275600:35:0800:00:589300:22:05 01:09:55 
7216450JOHN BROWNINGFLORENCE SC6300:09:0800:00:597300:35:4900:01:0511200:22:57 01:09:56 
7313849GARY DOVEFLORENCE SC9200:09:4200:01:205300:35:0300:01:2310000:22:32 01:09:58 
744926JUSTIN ELLETTCHARLESTON SC3200:08:0500:01:2413600:38:2600:01:086000:21:02 01:10:04 
751017NATHAN ANDREPONTBEAUFORT SC300:06:3200:01:4710500:37:2500:00:4813600:23:43 01:10:13 
7615839SCOTT TAYLORGREENVILLE SC7900:09:1800:02:077000:35:3400:00:3711500:23:04 01:10:39 
7732833PATRICK ARCHITTAMAULDIN SC11300:10:0800:01:067900:36:0800:00:3610400:22:44 01:10:40 
7810242OMAR MORENOBLUFFTON SC7400:09:1200:00:5311100:37:4100:01:427200:21:22 01:10:47 
7914344CRAIG HAGOODRALEIGH NC10900:10:0000:02:119500:36:5600:01:085300:20:47 01:11:01 
8016131KAHWAI MURIITHISIMPSONVILLE SC9700:09:4600:01:149100:36:4600:00:589800:22:26 01:11:08 
8117635LEE WILLIAMSCAMDEN SC10100:09:5100:01:306800:35:3200:01:2411300:22:57 01:11:12 
8234331SEBASTIEN COLOTGREENVILLE SC13200:10:2900:01:057200:35:3500:00:4312700:23:24 01:11:15 
839342RUSS MADRAYGREENVILLE SC15800:11:0400:01:586600:35:3200:01:246900:21:19 01:11:15 
8415532RONNIE BARTHFLORENCE SC10600:09:5700:01:559300:36:4800:01:157400:21:23 01:11:16 
855844MARK KIFFGREER SC2300:07:5000:00:588900:36:4200:01:0417100:24:54 01:11:26 
8611440MARTIN HUTTIGGREENVILLE SC5800:09:0000:01:246700:35:3200:01:1515300:24:20 01:11:28 
879624EDOUARD DE MEZERACPARIS5700:08:5600:01:2214300:38:5200:00:278500:21:54 01:11:28 
888358SHAWN CHILLAGCOLUMBIA SC4900:08:4000:02:0612400:37:5900:01:137900:21:37 01:11:33 
8923145LARRY MCELVEENFLORENCE SC11400:10:0900:01:086200:35:1900:01:0914200:23:51 01:11:34 
903945STEVE LEWISEASLEY SC2900:08:0200:01:1812300:37:5800:01:2810500:22:49 01:11:34 
917438MIKE HODSONBEAUFORT SC7600:09:1400:01:229200:36:4700:01:0212600:23:22 01:11:47 
9213046BRUCE BRAWLEYWILMINGTON NC15100:10:5100:01:1213300:38:2200:01:073800:20:17 01:11:47 
PlaceBibAgeNAMECITY/STATERankSWIMT1RankBIKET2RankRUNPENALTYTIMEDQ
9310739DOUG THOMPSONBEAUFORT SC10300:09:5200:01:487800:35:5900:01:1910700:22:51 01:11:47 
9413248JHON ALVAREZBLUFFTON SC11900:10:1400:01:1211000:37:3900:01:117700:21:35 01:11:49 
9526627JASON KAZIANTAYLORS SC14300:10:4700:01:526000:35:1600:01:2011100:22:56 01:12:09 
9611235ED FOWLERTYBEE ISLAND GA4300:08:3000:00:479700:37:0500:01:2016500:24:37 01:12:17 
9714838JONATHAN STORIEANDERSON SC9800:09:4600:01:164800:34:4300:01:0718300:25:39 01:12:29 
9814132STUART GILLINGHAMCHARLESTON SC12400:10:1800:02:358700:36:3300:01:138700:21:56 01:12:33 
994142PATRICK STUDIOSOCHARLOTTE NC2800:07:5900:01:3911900:37:5200:01:0815400:24:22 01:12:59 
100108 ANTHONY TURNERBLUFFTON SC6000:09:0200:01:539800:37:0600:01:1813900:23:46 01:13:02 
10115637MASON FERRATTNORTH CHARLESTON SC8200:09:2400:01:3318700:41:1000:01:332300:19:28 01:13:06 
1025235ANDRE MAULECOLUMBIA SC6600:09:0900:01:1110200:37:1900:01:0615500:24:25 01:13:07 
10312434HARRY MULKEYMT. PLEASANT SC7800:09:1500:02:1312000:37:5300:01:0310600:22:50 01:13:12 
10417227KYLE MOODYCANDLER NC13000:10:2700:01:208000:36:1000:00:4616400:24:36 01:13:18 
10519045JEFFREY BAKERSAVANNAH GA15700:11:0400:02:448300:36:1900:01:358100:21:43 01:13:23 
10623238BRETT SCHEUERKENMORET NY10200:09:5100:01:3110400:37:2500:00:3814500:24:03 01:13:27 
10719138JOHN BEASLEYSAVANNAH GA15600:11:0100:01:436500:35:2800:01:0315000:24:16 01:13:29 
1083551JOHN MANNINGGEORGETOWN SC5100:08:4800:01:5611800:37:5200:01:2213400:23:33 01:13:29 
10922453TIM CUNNINGHAMFLORENCE SC19600:12:1100:01:3610100:37:1800:00:557800:21:35 01:13:34 
11017933ROBERTO DIGIOVINEGREENVILLE SC20100:12:2100:01:223500:33:3600:01:0717500:25:11 01:13:35 
1117121MICHAEL DOLECOLUMBIA SC3000:08:0400:01:3714500:39:0600:01:3712500:23:18 01:13:40 
1129824NICHOLAS KENNICOTTSAVANNAH GA17900:11:3900:01:1910700:37:2600:01:129500:22:08 01:13:42 
1138020BRADLEY SMITHGREER SC6400:09:0800:02:0117000:40:1600:01:195800:21:02 01:13:43 
11437129BEN STEELEBEAUFORT SC10700:09:5700:01:5515100:39:2700:01:137000:21:20 01:13:49 
11518027ANDREW GYVESCOLUMBIA SC11600:10:1200:03:1010800:37:3200:02:035600:20:55 01:13:50 
11616729JASON HATFIELDINMAN SC11800:10:1300:01:219900:37:0900:01:3013800:23:46 01:13:57 
1172722BRAD BERTHELOTTENORTH CHARLESTON SC2000:07:4100:01:4018200:40:5100:00:3012400:23:18 01:13:58 
11812632TOLY SIAMOSSAVANNAH GA11100:10:0300:02:036900:35:3300:01:3417200:24:56 01:14:07 
11922237STEVEN BURGESSCONCORD NC16300:11:1300:02:2914700:39:0900:01:113600:20:12 01:14:12 
120640DAMON GRIMESPOWDER SPRINGS GA18000:11:4000:00:5810000:37:1300:01:1411900:23:10 01:14:13 
12119944CURTIS HORNORHILTON HEAD SC16200:11:1200:01:2915000:39:2500:01:036200:21:09 01:14:15 
12221813JACK FELIXHILTON HEAD ISLAND SC10800:09:5700:01:0117600:40:4500:00:578000:21:40 01:14:18 
12317024BRETT LEWISFLORENCE SC12800:10:2700:01:3812700:38:0500:01:2010800:22:51 01:14:19 
PlaceBibAgeNAMECITY/STATERankSWIMT1RankBIKET2RankRUNPENALTYTIMEDQ
12412240MARLOND MEADOWSMATTHEWS NC8600:09:3200:01:088500:36:3000:01:0219000:26:14 01:14:24 
12517135KEVIN MCNEESEHAVELOCK NC8500:09:3200:01:2311600:37:4700:01:0916200:24:36 01:14:25 
12615241DAN CORDELLMT. PLEASANT SC8700:09:3500:02:2213200:38:2100:01:4510300:22:41 01:14:43 
12731319JASON PURUCKEREVANS GA15900:11:0600:01:3317900:40:4900:00:573900:20:22 01:14:43 
12837457GLENN BRACKINSIMPSONVILLE SC8000:09:1800:01:5812100:37:5600:01:0815700:24:30 01:14:48 
12918736THOMAS PRITCHARDSAVANNAH GA11000:10:0100:02:0413100:38:1900:01:2212100:23:16 01:15:01 
13020520SEAN MCLAFFERTYFT. BRAGG NC12700:10:2200:02:2515900:39:5000:01:107300:21:22 01:15:07 
13132441BRIAN HEASTERFLORENCE SC5200:08:4900:02:2517200:40:1800:01:359400:22:08 01:15:13 
13220339JEFF LESSENBERRYSIMPSONVILLE SC17100:11:3000:01:168200:36:1800:01:4015800:24:31 01:15:13 
13313625JOSHUA DAVISRALEIGH NC14900:10:5000:01:1412600:38:0000:01:0815100:24:16 01:15:27 
13423948RICK MOORECHARLOTTE NC10500:09:5400:01:4616000:39:5400:01:369900:22:27 01:15:34 
13533242JAMES KISERDARLINGTON SC19000:11:5100:01:528600:36:3100:02:1112000:23:12 01:15:35 
13619724ALEXANDRE GRAND-DEWYSEANDERSON SC19500:12:0900:01:5715300:39:3000:01:274600:20:35 01:15:36Y
13713155DON ALTMANBEAUFORT SC12300:10:1800:01:4911500:37:4500:01:1816700:24:43 01:15:52 
13831037MICHAEL SEELYJACKSONVILLE NC19700:12:1100:02:1014800:39:1200:01:077100:21:21 01:16:00 
13913349KENT BERRYBLUFFTON SC13300:10:3500:01:1015600:39:3900:00:5413700:23:46 01:16:02 
14024450PAUL BAKERSAVANNAH GA15400:10:5600:01:5313500:38:2300:01:0414300:23:56 01:16:10 
14124942DAVID HOWEGASTONIA NC11700:10:1300:01:5710900:37:3300:01:1118000:25:27 01:16:18 
14234532JUSTIN RISONFLORENCE SC9500:09:4500:01:3213400:38:2300:01:1618200:25:36 01:16:30 
14313764KEITH DOUGLASSSAVANNAH GA17000:11:3000:02:1312200:37:5800:01:3912200:23:17 01:16:35 
1449942BRAD LOESCHERYARDLEY PA6100:09:0400:01:1915500:39:3700:01:2617600:25:18 01:16:42 
1452829BRIAN BERTHELOTTENORTH CHARLESTON SC1100:07:2400:01:3417100:40:1600:01:3218800:26:00 01:16:44 
14635230BRIAN WOODALLGOOSE CREEK SC18500:11:4600:01:2820300:42:2300:00:484700:20:36 01:16:59 
14735445MAURICE UNGAROBEAUFORT SC20000:12:2000:02:358100:36:1300:01:5314600:24:06 01:17:05 
14822351STEPHEN CONNELLFLORENCE SC19900:12:1500:01:4913800:38:2900:01:0713200:23:31 01:17:10 
14935729DANIEL FLORINPOOLER GA14800:10:5000:02:1118400:40:5800:00:519700:22:25 01:17:14 
15035045TODD ATKINSFAYETTEVILLE GA13600:10:3700:02:064300:34:0300:01:1821300:29:11 01:17:14 
1514539ERIC MITCHELLGREENVILLE SC10400:09:5200:01:3216900:40:1600:01:0416100:24:35 01:17:17 
15218867RICHARD WEBSTERSALEM SC18200:11:4000:01:5413000:38:1900:01:0115900:24:31 01:17:23 
15325626HARRISON YOUMANSCHARLESTON SC12500:10:1900:01:3620200:42:2300:01:079000:22:03 01:17:25 
15429233STEVE WEARDENMANNING SC17300:11:3200:01:3811300:37:4200:00:5518400:25:43 01:17:28 
PlaceBibAgeNAMECITY/STATERankSWIMT1RankBIKET2RankRUNPENALTYTIMEDQ
1556928DANIEL BELLSIMPSONVILLE SC6700:09:0900:01:159600:36:5800:01:1021000:28:59 01:17:28 
15631725BRANDON HAMMONDCAYCE SC16900:11:2600:03:0716800:40:1500:00:508600:21:54 01:17:29 
15725447PHILIP ZITELLOHILTON HEAD ISLAND SC16700:11:2300:02:3313700:38:2800:01:4013100:23:31 01:17:33 
1587644DAVID MANDELLPORT ROYAL SC4800:08:3700:01:5116100:39:5800:01:2518500:25:50 01:17:39 
15922863CURTIS FARMERMOORESBORO NC14500:10:4900:01:3312900:38:1200:01:4517800:25:23 01:17:40 
16015342GORDON OLIVERLADYS ISLAND SC9000:09:3800:02:0614000:38:3700:01:4218600:25:56 01:17:57 
16131940JEFFREY WHALENMOUNT PLEASANT SC700:07:1000:03:0415200:39:2700:03:4916000:24:33 01:18:01 
16229932AMIEL DEVOURSNEYGREENVILLE SC21600:13:2900:02:5615400:39:3000:01:285200:20:44 01:18:06 
16316927IAN LESLIEPORT ROYAL SC16500:11:1700:01:2015700:39:4200:01:1216600:24:42 01:18:10 
16425727STEPHEN ARNOLDBLUFFTON SC20200:12:2300:01:1718800:41:1300:00:4010100:22:41 01:18:11 
16524146DOUGLAS GOLDENTRAVELERS REST SC19300:12:0900:01:3916300:40:0200:01:4511600:23:08 01:18:41 
16629636MARK ARLOWBEAUFORT SC18700:11:4900:02:0317500:40:4200:01:4011000:22:54 01:19:06 
16732736MICHAEL FOERSTERRALEIGH NC16000:11:0800:01:3210600:37:2600:01:3420300:27:36 01:19:13 
16828930JOHN CHAMBERSCHARLOTTE NC19200:12:0700:02:0817400:40:3200:01:2912800:23:25 01:19:39 
16919234KEVIN BURTONATLANTA GA17800:11:3600:02:0818300:40:5600:01:1514000:23:47 01:19:40 
17023821CHRIS WALDROPCHARLESTON SC17500:11:3400:01:4516200:39:5900:01:0817700:25:20 01:19:43 
17131239BILLY MOOREPARRIS ISLAND SC23000:17:2400:01:4314600:39:0700:00:335900:21:02 01:19:47 
17225813JACK MCALHANYHODGES SC18800:11:4900:01:5118500:41:0200:01:2014100:23:47 01:19:47 
17314544SHAWN LABELLESIMPSONVILLE SC14600:10:5000:01:2613900:38:3300:01:2720400:27:44 01:19:58 
17417352JIMMY PARHAMIRMO SC15000:10:5000:03:0812500:38:0000:01:0619700:26:59 01:20:02 
17524725JOSEPH GARWACKIHINESVILLE GA14100:10:4400:02:0119600:41:4600:00:3917300:24:57 01:20:06 
17624043PHILLIP PAYNEEVANS GA20500:12:4700:02:0519100:41:2500:01:1210200:22:41 01:20:08 
17715939TOM WILLIAMSAIKEN SC6200:09:0700:02:1312800:38:0900:01:3821200:29:05 01:20:11 
17828260DAVID CAPELLCOVINGTON GA21500:13:2900:01:1319200:41:2600:00:4112900:23:25 01:20:12 
17936126WALTER JAMESCHARLESTON SC21300:13:1800:01:4717300:40:2300:01:1813500:23:41 01:20:25 
18030537ANDREW HUTTULABEAUFORT SC19800:12:1400:02:1216700:40:1300:01:2516800:24:43 01:20:45 
18134249ROBERT BANFIELDPARRIS ISLAND SC14700:10:5000:02:1121100:43:0000:00:5114800:24:11 01:21:02 
18227431SKYE MARTHALERARLINGTON VA21800:13:4100:02:189000:36:4400:01:3119500:26:50 01:21:02 
18316260RODNEY WILLIAMSWOODSTOCK MD8800:09:3500:02:0519000:41:2400:01:0319900:27:14 01:21:18 
18436244CHRIS MCGREEVYIRMO SC21900:13:4400:02:3114900:39:1800:01:0217400:25:04 01:21:37 
18519647THOMAS GARIGANHINESVILLE GA13100:10:2700:02:0622800:46:1300:00:399600:22:22 01:21:45 
PlaceBibAgeNAMECITY/STATERankSWIMT1RankBIKET2RankRUNPENALTYTIMEDQ
18611647BILL BUCHANANWRIGHTSVILLE BEACH NC9100:09:3900:02:1918000:40:5100:00:5920700:28:20 01:22:06 
18722920CHAD HOPKINSFT. BRAGG NC20600:12:5400:01:4921000:43:0000:01:0813000:23:26 01:22:15 
18818960BILLY BRUGGEMANOKATIE SC18600:11:4900:01:3914200:38:5100:01:3620800:28:23 01:22:16 
18935625CHRIS WEGMANNBEAUFORT SC16400:11:1400:03:0919800:42:0600:01:1816300:24:36 01:22:22 
19018145DEREK HORSTEMEYERMYRTLE BEACH SC21400:13:1900:02:0216600:40:1100:01:2018100:25:33 01:22:25 
19119327CHRISTOHPER BURWELLCOLUMBIA SC16100:11:1000:02:0922200:44:4300:00:5613300:23:32 01:22:28 
19226031BRIAN HARDYIRMO SC22600:15:0100:02:4017700:40:4700:00:5412300:23:17 01:22:39 
19328831KEVIN BENNETTIRMO SC22500:15:0100:01:5514400:38:5500:01:0618700:25:59 01:22:54 
19434937TROY OLIVERTYBEE ISLAND GA20800:13:0200:01:2420600:42:4400:01:2016900:24:48 01:23:16 
19530236GALEN FLETCHERGREENVILLE SC22300:14:3400:02:0518600:41:0800:01:3514900:24:14 01:23:35 
19621039GREG PINNINGTONIRMO SC22200:14:1600:01:4216400:40:0700:01:2918900:26:08 01:23:39 
19724852RUSSELL HOBBS JR.BEAUFORT SC21100:13:1400:01:3611400:37:4400:01:3221700:29:37 01:23:41 
1989048JOHN FOUCHE'WEST COLUMBIA SC14400:10:4700:02:1120100:42:2200:01:4219600:26:55 01:23:54 
19934841MAC MCGOWANBEAUFORT SC16800:11:2500:02:1021300:43:0800:00:5819200:26:21 01:24:00 
20019544RICHARD FIELDSIRMO SC18400:11:4400:02:2519900:42:1100:01:3919100:26:17 01:24:13 
20124658ZACK BARRONPROSPERITY SC17700:11:3500:01:4617800:40:4700:02:5020100:27:34 01:24:31 
20229437MICHAEL WILSONJOANNA SC19400:12:0900:02:1520000:42:1300:01:3119400:26:50 01:24:55 
20327633WILLIAM MORRISCHARLESTON SC22400:14:4600:02:5119700:41:5100:01:0017900:25:26 01:25:53 
20427545LEONARDO MEDINAJACKSONVILLE FL23100:17:3900:01:3218100:40:5100:01:4314700:24:09 01:25:54 
20520849JOSEPH NIERSTEDTBEAUFORT SC17600:11:3500:02:2622000:44:2000:00:4319800:27:03 01:26:04 
20633135STEVEN HOLSTENAUGUSTA GA12600:10:1900:02:2220500:42:3800:02:0820900:28:48 01:26:14 
20731828BRINK HINSONWEST COLUMBIA SC15500:10:5900:03:2721400:43:1700:00:5920200:27:36 01:26:16 
20826830PATRICK CASTELLOBEAUFORT SC22100:14:1100:02:4321800:43:4200:01:3715600:24:29 01:26:41 
20926743JIM BREWERSALISBURY NC20700:13:0100:02:5718900:41:1700:01:0321400:29:12 01:27:29 
21036536KEVIN FRESHWATERN. CHARLESTON SC23500:59:53    19300:26:34 01:27:46 
21119828AUSTIN HARRISMOORE SC18300:11:4100:03:3921200:43:0300:02:0320600:28:13 01:28:37 
21223360EUGENE STEUERLEALEXANDRIA VA19100:11:5300:03:5621700:43:3300:02:2220000:27:31 01:29:14 
2133233DAVID MITCHELLJACKSONVILLE NC9600:09:4500:03:4419400:41:4000:01:4822500:32:24 01:29:20 
21420767JOHN MULFLUREASTON, MD12200:10:1800:03:1920700:42:5000:02:0922300:31:14 01:29:48 
21511838RAY HUNTCHAPIN SC12900:10:2700:02:0916500:40:0800:01:3423300:35:50 01:30:07 
21634139ANDY ABRILPONTE VEDRA BEACH FL16600:11:1800:03:0122400:45:0900:01:5121100:29:02 01:30:19Y
PlaceBibAgeNAMECITY/STATERankSWIMT1RankBIKET2RankRUNPENALTYTIMEDQ
21737260BRUCE CHAPMANWILMINGTON NC20400:12:4200:02:5021600:43:2600:02:1821500:29:13 01:30:27 
21818535BILL MCAFEEIRMO SC21000:13:1100:02:0522100:44:2600:01:0822200:30:58 01:31:45 
21934734BLAINE HILLLEXINGTON SC17200:11:3100:02:4123000:46:3300:01:0021800:30:08 01:31:50 
22012516CAMERON SANTOROST. AUGUSTINE FL18900:11:5000:02:3522500:45:1400:02:0021900:30:16 01:31:53 
22135848FRED EDGARMOUNT PLEASANT SC22800:15:2200:02:0920400:42:2600:01:5322000:30:31 01:32:19 
22224267BOB BREDINHILTON HEAD ISLAND SC20300:12:3200:02:2321900:44:1500:01:3522400:32:20 01:33:03 
22330755WILLIAM STEARNSSAVANNAH GA21200:13:1400:02:3920900:42:5600:02:1122700:32:54 01:33:52 
22418470MICHAEL DAYOUBSAVANNA GA13500:10:3700:02:2422600:45:2500:01:5522800:34:00 01:34:21 
22513978ROBERT EAZORHILTON HEAD SC   21500:43:2500:48:5322100:30:49 01:34:54 
22636867PHILIP BROWNINGPEACHTREE CITY GA22000:14:0900:03:4122900:46:1800:02:1821600:29:26 01:35:50 
22729758WILLIAM MASTRIANIBLUFFTON SC21700:13:3600:02:3120800:42:5000:01:5423200:35:32 01:36:21 
2287216JUSTIN EDGARMOUNT PLEASANT SC17400:11:3200:03:2919300:41:3600:01:4423500:39:11 01:37:31 
22930043BARRY BURDENGREENVILLE SC23200:20:0000:03:4319500:41:4300:01:2822600:32:35 01:39:27 
23027752PHILIP SANDMAIERHILTON HEAD SC18100:11:4000:05:3122300:45:0000:03:5622900:34:11 01:40:15 
23136624BRANDON BARBEEPORT ROYAL SC         01:40:26 
23237049RUSSELL REVELLAIKEN SC22700:15:0500:03:1023400:57:3100:01:1917000:24:51 01:41:54 
23316814EVAN JENSENSAVANNAH GA8400:09:2800:01:5623300:55:2400:00:3823000:34:34 01:41:59 
23430361BILL GLADDENSAVANNAH, GA23300:20:1300:03:4323200:49:0200:02:2320500:28:06 01:43:25 
23531132MATT KEATINGGAINESVILLE FL22900:16:5600:04:1623100:46:4400:01:4923100:34:40 01:44:24 
23631576PAUL WEBSTERAUGUSTA GA23400:29:2000:03:2322700:45:5700:01:3623400:36:23 01:56:38 
2378222ART HOPKINSCHARLESTON SC15300:10:56         

** Results are for the private use of participants and are the Intellectual Property of Set Up Events. Unauthorized use of these results is prohibited.